Gold Beach, OR

9:17 PM PDT on September 21, 2014 (GMT -0700)
North Bend | Change Station
CLOSE
Current Station
Airport
Location: North Bend,
Elevation: 16 ft
Nearby Weather Stations

Elev 16 ft 43.42 °N, 124.25 °W | Updated 22 minutes ago

Overcast
Overcast
61 °F
Feels Like 61 °F
N
7
Wind Variable Wind from SW

Today
High -- | Low -- °F
--% Chance of Precip.
Yesterday
High -- | Low -- °F
Precip. -- in
7:03 AM 7:16 PM
Waning Crescent, 4% visible
Pressure 30.03 in
Visibility 10.0 miles
Clouds Overcast 1200 ft
Dew Point 61 °F
Humidity 100%
Rainfall 0.00 in
Snow Depth 0 in , 0 in , 0 in
UV 0 out of 12
Pollen 4.00 out of 12
Air Quality Not available.
Flu Activity Not available.
METAR KOTH 220355Z 23006KT 10SM OVC012 16/16 A3003 RMK AO1

More Conditions Fewer Conditions

Pressure 30.03 in
Visibility 10.0 miles
Clouds Overcast 1200 ft
Dew Point 61 °F
Humidity 100%
Rainfall 0.00 in
Snow Depth 0 in , 0 in , 0 in
UV 0 out of 12
Pollen 4.00 out of 12
Air Quality Not available.
Flu Activity Not available.
METAR KOTH 220355Z 23006KT 10SM OVC012 16/16 A3003 RMK AO1

More Conditions Fewer Conditions

10-Day Weather Forecast

Almanac

Astronomy

Sep. 21, 2014 Rise Set
Actual Time 7:03 AM PDT 7:16 PM PDT
Civil Twilight 6:35 AM PDT 7:44 PM PDT
Nautical Twilight 6:02 AM PDT 8:17 PM PDT
Astronomical Twilight 5:29 AM PDT 8:50 PM PDT
Moon 4:40 AM PDT (9/21) 5:57 PM PDT (9/21)
Length of Visible Light 13h 08m
Length of Day
12h 12m
Tomorrow will be 2m 50s shorter.
Waning Crescent, 4% of the Moon is Illuminated
Sep 22
Waning Crescent
Sep 24
New
Oct 1
First Quarter
Oct 8
Full
Oct 15
Last Quarter

Today's Extremes

State Highs State Lows

Community

WunderPhotos

Upload Photos

1,755,383 photos uploaded!

Nearby

Snow Depth

Station Depth Elevation
Mt. Howard 0 in 7910 ft
Schneider Meadows 0 in 5400 ft
Irish Taylor 0 in 5500 ft
Cold Springs Camp 0 in 6100 ft
Sevenmile Marsh 0 in 6200 ft

Earthquake Activity

City Distance Mag. Time & Date
Eureka, California 105 miles 3.1 1:33 PM PDT
2014-09-20
Minimum magnitude displayed is 2.5.

Coastal Water Temperatures

Place Temperature
Port Orford, OR 55.9 °F
Crescent City, CA 63.0 °F
Charleston, OR 55.9 °F

Nearby Weather Stations